createdAt,value
2019-01-03T00:02:27.339Z,6.87
2019-01-03T00:05:30.566Z,6.00
2019-01-03T00:08:21.184Z,8.13
2019-01-03T00:11:12.047Z,7.07
2019-01-03T00:14:06.545Z,7.60
2019-01-03T00:16:56.889Z,6.27
2019-01-03T00:19:54.740Z,6.63
2019-01-03T00:22:44.873Z,9.47
2019-01-03T00:25:39.563Z,10.87
2019-01-03T00:28:39.998Z,9.37
2019-01-03T00:31:30.456Z,10.27
2019-01-03T00:34:32.056Z,10.10
2019-01-03T00:37:23.695Z,8.07
2019-01-03T00:40:18.071Z,6.90
2019-01-03T00:43:24.988Z,6.17
2019-01-03T00:46:13.500Z,6.40
2019-01-03T00:49:05.081Z,6.17
2019-01-03T00:51:46.004Z,6.27
2019-01-03T00:54:52.654Z,6.23
2019-01-03T00:57:42.871Z,5.00
2019-01-03T01:00:30.175Z,6.07
2019-01-03T01:03:20.621Z,6.07
2019-01-03T01:06:15.307Z,5.97
2019-01-03T01:09:05.531Z,6.17
2019-01-03T01:12:12.440Z,5.30
2019-01-03T01:15:02.693Z,5.73
2019-01-03T01:17:53.356Z,5.57
2019-01-03T01:20:45.191Z,5.30
2019-01-03T01:23:45.946Z,5.23
2019-01-03T01:26:36.251Z,5.50
2019-01-03T01:29:30.890Z,5.23
2019-01-03T01:32:25.244Z,4.97
2019-01-03T01:35:28.952Z,4.80
2019-01-03T01:38:14.439Z,5.07
2019-01-03T01:41:06.058Z,4.37
2019-01-03T01:44:00.494Z,4.07
2019-01-03T01:47:00.998Z,5.23
2019-01-03T01:49:55.370Z,5.30
2019-01-03T01:53:02.265Z,5.37
2019-01-03T01:55:56.936Z,6.73
2019-01-03T01:59:03.611Z,5.20
2019-01-03T02:01:53.909Z,5.67
2019-01-03T02:04:40.753Z,5.73
2019-01-03T02:07:31.245Z,5.70
2019-01-03T02:10:22.132Z,5.00
2019-01-03T02:13:12.633Z,5.50
2019-01-03T02:15:59.981Z,5.33
2019-01-03T02:18:50.485Z,4.70
2019-01-03T02:21:41.071Z,4.53
2019-01-03T02:24:31.700Z,5.20
2019-01-03T02:27:41.744Z,5.27
2019-01-03T02:30:33.304Z,4.90
2019-01-03T02:33:23.788Z,4.63
2019-01-03T02:36:11.161Z,4.60
2019-01-03T02:39:01.480Z,4.47
2019-01-03T02:41:59.113Z,4.20
2019-01-03T02:44:50.004Z,4.60
2019-01-03T02:47:40.277Z,6.20
2019-01-03T02:50:44.184Z,6.10
2019-01-03T02:53:53.842Z,7.80
2019-01-03T02:56:45.403Z,8.37
2019-01-03T02:59:51.572Z,5.97
2019-01-03T03:02:40.295Z,5.10
2019-01-03T03:05:35.314Z,5.33
2019-01-03T03:08:26.398Z,4.43
2019-01-03T03:11:16.802Z,4.30
2019-01-03T03:14:14.515Z,4.60
2019-01-03T03:17:24.192Z,4.40
2019-01-03T03:20:17.198Z,4.53
2019-01-03T03:23:11.882Z,5.03
2019-01-03T03:26:01.845Z,4.50
2019-01-03T03:28:50.772Z,4.50
2019-01-03T03:31:45.471Z,4.20
2019-01-03T03:34:46.105Z,5.27
2019-01-03T03:37:46.713Z,4.67
2019-01-03T03:40:36.987Z,4.20
2019-01-03T03:43:43.294Z,4.80
2019-01-03T03:46:34.194Z,5.03
2019-01-03T03:49:24.713Z,5.50
2019-01-03T03:52:16.314Z,4.40
2019-01-03T03:55:06.608Z,4.97
2019-01-03T03:58:13.504Z,4.50
2019-01-03T04:01:03.734Z,4.50
2019-01-03T04:04:10.636Z,4.30
2019-01-03T04:07:17.310Z,4.10
2019-01-03T04:10:11.888Z,4.37
2019-01-03T04:13:10.756Z,4.33
2019-01-03T04:16:07.083Z,4.37
2019-01-03T04:19:07.517Z,4.23
2019-01-03T04:21:57.955Z,3.90
2019-01-03T04:24:55.823Z,4.57
2019-01-03T04:27:50.194Z,4.50
2019-01-03T04:30:41.808Z,3.83
2019-01-03T04:33:48.707Z,4.20
2019-01-03T04:36:40.320Z,4.00
2019-01-03T04:39:31.497Z,3.90
2019-01-03T04:42:32.124Z,4.00
2019-01-03T04:45:23.096Z,5.40
2019-01-03T04:48:27.019Z,6.07
2019-01-03T04:51:17.122Z,5.27
2019-01-03T04:54:10.109Z,7.47
2019-01-03T04:57:00.316Z,6.10
2019-01-03T05:00:02.882Z,8.60
2019-01-03T05:03:00.031Z,8.30
2019-01-03T05:05:50.439Z,6.43
2019-01-03T05:08:40.854Z,6.73
2019-01-03T05:11:27.237Z,5.47
2019-01-03T05:14:31.190Z,6.33
2019-01-03T05:17:37.850Z,5.70
2019-01-03T05:20:35.221Z,5.20
2019-01-03T05:23:45.490Z,5.10
2019-01-03T05:26:42.742Z,8.47
2019-01-03T05:29:42.938Z,15.70
2019-01-03T05:32:40.471Z,25.93
2019-01-03T05:35:32.069Z,18.47
2019-01-03T05:38:22.257Z,19.30
2019-01-03T05:41:29.253Z,15.33
2019-01-03T05:44:23.455Z,17.57
2019-01-03T05:47:13.621Z,11.27
2019-01-03T05:50:04.156Z,10.50
2019-01-03T05:53:05.299Z,9.67
2019-01-03T05:56:09.213Z,8.63
2019-01-03T05:58:54.638Z,7.80
2019-01-03T06:01:40.572Z,9.30
2019-01-03T06:04:34.874Z,9.07
2019-01-03T06:07:35.851Z,8.47
2019-01-03T06:10:27.446Z,8.57
2019-01-03T06:13:24.893Z,8.00
2019-01-03T06:16:16.519Z,7.47
2019-01-03T06:19:17.319Z,7.10
2019-01-03T06:22:11.744Z,7.90
2019-01-03T06:25:11.511Z,5.57
2019-01-03T06:27:59.562Z,5.97
2019-01-03T06:30:51.166Z,6.70
2019-01-03T06:33:43.808Z,7.10
2019-01-03T06:36:36.346Z,6.70
2019-01-03T06:39:23.382Z,8.20
2019-01-03T06:42:13.641Z,12.87
2019-01-03T06:45:04.037Z,13.87
2019-01-03T06:47:54.580Z,10.37
2019-01-03T06:50:46.227Z,7.97
2019-01-03T06:53:43.657Z,7.23
2019-01-03T06:56:33.881Z,7.10
2019-01-03T06:59:28.491Z,6.87
2019-01-03T07:02:16.032Z,6.63
2019-01-03T07:05:06.588Z,6.17
2019-01-03T07:07:57.081Z,6.60
2019-01-03T07:10:44.191Z,6.53
2019-01-03T07:13:38.724Z,7.97
2019-01-03T07:16:39.826Z,9.33
2019-01-03T07:19:37.673Z,8.80
2019-01-03T07:22:20.160Z,7.13
2019-01-03T07:25:10.647Z,7.90
2019-01-03T07:28:05.315Z,9.33
2019-01-03T07:30:56.926Z,7.97
2019-01-03T07:34:00.874Z,7.10
2019-01-03T07:37:11.135Z,7.77
2019-01-03T07:40:07.113Z,7.50
2019-01-03T07:42:58.687Z,7.03
2019-01-03T07:45:49.018Z,7.63
2019-01-03T07:48:43.713Z,8.90
2019-01-03T07:51:35.441Z,8.07
2019-01-03T07:54:36.106Z,9.93
2019-01-03T07:57:36.775Z,8.80
2019-01-03T08:00:34.658Z,8.53
2019-01-03T08:03:24.903Z,8.17
2019-01-03T08:06:26.161Z,7.83
2019-01-03T08:09:16.694Z,7.50
2019-01-03T08:12:03.548Z,8.20
2019-01-03T08:14:58.169Z,8.13
2019-01-03T08:17:55.669Z,9.90
2019-01-03T08:20:56.318Z,7.50
2019-01-03T08:23:50.981Z,9.23
2019-01-03T08:26:41.076Z,8.00
2019-01-03T08:29:35.693Z,9.07
2019-01-03T08:32:33.299Z,9.23
2019-01-03T08:35:23.745Z,10.00
2019-01-03T08:38:24.045Z,10.93
2019-01-03T08:41:24.663Z,8.87
2019-01-03T08:44:19.115Z,9.80
2019-01-03T08:47:12.670Z,9.83
2019-01-03T08:50:10.324Z,10.47
2019-01-03T08:53:04.743Z,10.53
2019-01-03T08:55:59.371Z,11.60
2019-01-03T08:58:53.760Z,9.23
2019-01-03T09:01:44.010Z,10.30
2019-01-03T09:04:34.504Z,10.60
2019-01-03T09:07:24.975Z,10.17
2019-01-03T09:10:21.963Z,10.83
2019-01-03T09:13:24.197Z,10.43
2019-01-03T09:16:11.850Z,9.40
2019-01-03T09:19:02.094Z,8.60
2019-01-03T09:21:52.432Z,9.27
2019-01-03T09:24:42.899Z,12.97
2019-01-03T09:27:39.034Z,12.33
2019-01-03T09:30:29.329Z,11.57
2019-01-03T09:33:39.349Z,11.27
2019-01-03T09:36:26.522Z,12.10
2019-01-03T09:39:21.140Z,13.50
2019-01-03T09:42:11.344Z,12.10
2019-01-03T09:44:43.058Z,12.33
2019-01-03T09:47:15.186Z,12.40
2019-01-03T09:49:47.182Z,14.17
2019-01-03T09:52:19.160Z,14.10
2019-01-03T09:54:51.215Z,14.83
2019-01-03T09:57:23.223Z,14.30
2019-01-03T09:59:55.236Z,13.17
2019-01-03T10:02:27.252Z,13.53
2019-01-03T10:04:59.216Z,16.00
2019-01-03T10:07:31.235Z,13.90
2019-01-03T10:10:04.343Z,14.37
2019-01-03T10:12:36.360Z,14.87
2019-01-03T10:15:08.677Z,13.57
2019-01-03T10:17:40.693Z,13.10
2019-01-03T10:20:12.727Z,11.30
2019-01-03T10:26:24.351Z,10.93
2019-01-03T10:28:56.416Z,10.90
2019-01-03T10:31:28.452Z,12.97
2019-01-03T10:34:00.460Z,11.03
2019-01-03T10:36:32.478Z,11.93
2019-01-03T10:39:06.603Z,11.23
2019-01-03T10:41:38.643Z,11.93
2019-01-03T10:44:10.632Z,10.67
2019-01-03T10:46:42.634Z,12.83
2019-01-03T10:49:14.693Z,14.60
2019-01-03T10:51:46.797Z,12.53
2019-01-03T10:54:18.788Z,12.47
2019-01-03T10:56:50.825Z,14.40
2019-01-03T10:59:22.815Z,13.10
2019-01-03T11:01:54.834Z,13.93
2019-01-03T11:04:26.846Z,11.43
2019-01-03T11:06:58.837Z,10.93
2019-01-03T11:09:30.861Z,10.33
2019-01-03T11:12:02.942Z,10.37
2019-01-03T11:14:34.971Z,12.23
2019-01-03T11:17:06.954Z,14.97
2019-01-03T11:19:38.951Z,11.30
2019-01-03T11:22:10.952Z,10.90
2019-01-03T11:24:42.941Z,10.27
2019-01-03T11:27:14.939Z,10.43
2019-01-03T11:29:46.993Z,10.57
2019-01-03T11:32:18.985Z,11.57
2019-01-03T11:34:50.983Z,10.60
2019-01-03T11:37:22.954Z,12.63
2019-01-03T11:39:54.970Z,11.77
2019-01-03T11:42:26.993Z,9.70
2019-01-03T11:44:59.007Z,8.43
2019-01-03T11:47:30.990Z,7.63
2019-01-03T11:50:03.195Z,7.73
2019-01-03T11:52:35.231Z,7.70
2019-01-03T11:55:07.256Z,6.30
2019-01-03T11:57:39.309Z,7.23
2019-01-03T12:00:11.379Z,8.03
2019-01-03T12:02:43.365Z,7.60
2019-01-03T12:05:15.433Z,7.83
2019-01-03T12:07:47.431Z,8.10
2019-01-03T12:10:19.477Z,7.47
2019-01-03T12:12:51.484Z,8.33
2019-01-03T12:15:23.626Z,8.30
2019-01-03T12:17:55.638Z,7.70
2019-01-03T12:20:27.665Z,8.03
2019-01-03T12:22:59.640Z,7.57
2019-01-03T12:25:31.665Z,8.20
2019-01-03T12:28:03.695Z,7.17
2019-01-03T12:30:35.711Z,7.80
2019-01-03T12:33:07.733Z,7.40
2019-01-03T12:35:39.729Z,7.00
2019-01-03T12:38:11.770Z,6.17
2019-01-03T12:40:43.767Z,5.80
2019-01-03T12:43:15.747Z,6.33
2019-01-03T12:45:47.770Z,5.93
2019-01-03T12:48:19.808Z,6.87
2019-01-03T12:50:51.825Z,6.23
2019-01-03T12:53:23.877Z,8.47
2019-01-03T12:55:55.848Z,8.70
2019-01-03T12:58:27.913Z,8.50
2019-01-03T13:00:59.902Z,7.77
2019-01-03T13:03:31.938Z,7.13
2019-01-03T13:06:03.945Z,6.83
2019-01-03T13:08:36.315Z,9.37
2019-01-03T13:11:08.379Z,10.40
2019-01-03T13:13:40.434Z,13.43
2019-01-03T13:16:12.526Z,8.87
2019-01-03T13:18:44.550Z,7.93
2019-01-03T13:21:16.559Z,7.27
2019-01-03T13:23:48.568Z,7.57
2019-01-03T13:26:20.630Z,7.20
2019-01-03T13:28:52.687Z,6.60
2019-01-03T13:31:24.667Z,6.87
2019-01-03T13:33:56.704Z,7.20
2019-01-03T13:36:28.730Z,8.10
2019-01-03T13:39:00.764Z,7.43
2019-01-03T13:41:32.745Z,7.03
2019-01-03T13:44:04.757Z,7.10
2019-01-03T13:46:36.765Z,7.13
2019-01-03T13:49:08.790Z,6.47
2019-01-03T13:51:40.912Z,7.03
2019-01-03T13:54:12.954Z,7.07
2019-01-03T13:56:44.957Z,6.57
2019-01-03T13:59:16.965Z,7.40
2019-01-03T14:01:48.940Z,7.90
2019-01-03T14:04:20.962Z,6.90
2019-01-03T14:06:52.985Z,6.60
2019-01-03T14:09:25.127Z,7.10
2019-01-03T14:11:57.176Z,7.03
2019-01-03T14:14:29.230Z,7.30
2019-01-03T14:17:01.288Z,8.10
2019-01-03T14:19:33.322Z,7.23
2019-01-03T14:22:05.352Z,8.37
2019-01-03T14:24:37.420Z,7.80
2019-01-03T14:27:09.438Z,8.33
2019-01-03T14:29:41.500Z,8.57
2019-01-03T14:32:13.574Z,8.43
2019-01-03T14:34:45.562Z,9.30
2019-01-03T14:37:17.581Z,8.03
2019-01-03T14:39:49.594Z,8.80
2019-01-03T14:42:21.640Z,9.00
2019-01-03T14:44:53.653Z,8.00
2019-01-03T14:47:25.690Z,8.80
2019-01-03T14:49:57.703Z,9.17
2019-01-03T14:52:29.753Z,9.80
2019-01-03T14:55:01.776Z,10.27
2019-01-03T14:57:33.816Z,10.27
2019-01-03T15:03:00.521Z,9.40
2019-01-03T15:05:32.525Z,8.37
2019-01-03T15:08:04.554Z,8.50
2019-01-03T15:10:36.583Z,8.80
2019-01-03T15:13:08.651Z,10.20
2019-01-03T15:15:40.643Z,8.90
2019-01-03T15:18:12.771Z,9.97
2019-01-03T15:20:44.784Z,9.70
2019-01-03T15:23:57.686Z,9.87
2019-01-03T15:26:29.675Z,8.67
2019-01-03T15:29:01.706Z,10.47
2019-01-03T15:31:33.764Z,9.87
2019-01-03T15:34:05.787Z,10.03
2019-01-03T15:36:37.803Z,8.63
2019-01-03T15:39:09.838Z,9.37
2019-01-03T15:41:41.826Z,10.37
2019-01-03T15:44:13.883Z,10.90
2019-01-03T15:46:45.927Z,10.37
2019-01-03T15:49:17.988Z,10.00
2019-01-03T15:51:49.971Z,10.63
2019-01-03T15:54:22.028Z,10.37
2019-01-03T15:56:54.030Z,8.97
2019-01-03T15:59:26.065Z,10.60
2019-01-03T16:01:58.090Z,10.50
2019-01-03T16:04:30.132Z,10.10
2019-01-03T16:07:02.243Z,9.83
2019-01-03T16:09:34.314Z,11.03
2019-01-03T16:12:06.318Z,9.90
2019-01-03T16:14:38.391Z,9.80
2019-01-03T16:17:10.439Z,14.10
2019-01-03T16:19:42.489Z,17.17
2019-01-03T16:22:14.489Z,16.97
2019-01-03T16:24:46.602Z,15.87
2019-01-03T16:27:18.680Z,17.00
2019-01-03T16:29:51.523Z,15.03
2019-01-03T16:32:24.772Z,14.53
2019-01-03T16:34:56.779Z,16.23
2019-01-03T16:37:28.773Z,15.50
2019-01-03T16:40:20.282Z,15.03
2019-01-03T16:42:52.326Z,13.60
2019-01-03T16:45:24.386Z,12.83
2019-01-03T16:47:56.453Z,15.17
2019-01-03T16:50:28.485Z,15.00
2019-01-03T16:53:00.598Z,14.50
2019-01-03T16:55:32.686Z,14.10
2019-01-03T16:58:04.736Z,16.40
2019-01-03T17:00:36.801Z,15.83
2019-01-03T17:03:08.795Z,14.33
2019-01-03T17:05:40.966Z,17.13
2019-01-03T17:08:12.989Z,18.00
2019-01-03T17:10:45.007Z,19.50
2019-01-03T17:13:17.062Z,17.67
2019-01-03T17:15:49.190Z,18.93
2019-01-03T17:18:21.291Z,19.73
2019-01-03T17:20:53.264Z,18.17
2019-01-03T17:23:25.260Z,19.60
2019-01-03T17:25:57.298Z,18.90
2019-01-03T17:28:29.358Z,18.53
2019-01-03T17:31:01.376Z,18.23
2019-01-03T17:33:33.404Z,16.87
2019-01-03T17:36:05.500Z,23.70
2019-01-03T17:38:37.555Z,19.77
2019-01-03T17:41:09.535Z,23.90
2019-01-03T17:43:41.581Z,30.00
2019-01-03T17:46:13.641Z,27.00
2019-01-03T17:48:45.671Z,33.83
2019-01-03T17:51:17.711Z,28.83
2019-01-03T17:53:49.759Z,33.80
2019-01-03T17:56:21.758Z,33.47
2019-01-03T17:58:53.821Z,34.93
2019-01-03T18:01:25.858Z,28.67
2019-01-03T18:03:57.958Z,25.93
2019-01-03T18:06:29.993Z,26.73
2019-01-03T18:09:02.195Z,26.77
2019-01-03T18:11:34.209Z,28.40
2019-01-03T18:14:06.242Z,23.17
2019-01-03T18:16:38.249Z,23.43
2019-01-03T18:19:10.311Z,20.53
2019-01-03T18:21:42.324Z,22.60
2019-01-03T18:24:14.349Z,25.37
2019-01-03T18:26:46.374Z,23.90
2019-01-03T18:29:18.519Z,26.03
2019-01-03T18:31:50.578Z,28.47
2019-01-03T18:34:22.625Z,24.63
2019-01-03T18:36:54.672Z,24.33
2019-01-03T18:39:26.730Z,26.40
2019-01-03T18:41:58.787Z,23.73
2019-01-03T18:44:31.341Z,21.23
2019-01-03T18:47:03.424Z,25.53
2019-01-03T18:49:35.419Z,23.37
2019-01-03T18:52:07.499Z,25.40
2019-01-03T18:54:39.524Z,34.50
2019-01-03T18:57:11.593Z,29.23
2019-01-03T18:59:43.691Z,30.93
2019-01-03T19:02:15.773Z,36.90
2019-01-03T19:04:47.783Z,36.63
2019-01-03T19:07:19.818Z,33.33
2019-01-03T19:09:51.887Z,33.30
2019-01-03T19:12:24.005Z,30.13
2019-01-03T19:14:56.073Z,28.30
2019-01-03T19:17:28.122Z,26.80
2019-01-03T19:20:00.263Z,24.70
2019-01-03T19:22:32.327Z,27.20
2019-01-03T19:25:06.812Z,27.73
2019-01-03T19:27:38.923Z,27.20
2019-01-03T19:30:11.034Z,25.03
2019-01-03T19:32:43.127Z,26.57
2019-01-03T19:35:15.195Z,29.40
2019-01-03T19:37:47.249Z,27.67
2019-01-03T19:40:19.310Z,28.33
2019-01-03T19:42:51.369Z,28.83
2019-01-03T19:45:23.353Z,28.40
2019-01-03T19:47:55.477Z,26.67
2019-01-03T19:50:27.530Z,25.97
2019-01-03T19:52:59.663Z,27.50
2019-01-03T19:55:31.789Z,29.17
2019-01-03T19:58:03.927Z,28.63
2019-01-03T20:00:35.992Z,24.40
2019-01-03T20:03:08.139Z,25.07
2019-01-03T20:05:40.224Z,25.73
2019-01-03T20:08:12.375Z,24.50
2019-01-03T20:10:44.403Z,23.63
2019-01-03T20:13:16.539Z,23.63
2019-01-03T20:15:48.927Z,26.60
2019-01-03T20:18:21.313Z,28.63
2019-01-03T20:20:53.429Z,28.90
2019-01-03T20:23:25.501Z,29.50
2019-01-03T20:25:57.562Z,28.10
2019-01-03T20:28:29.617Z,28.20
2019-01-03T20:31:01.680Z,29.57
2019-01-03T20:33:33.831Z,26.40
2019-01-03T20:36:05.972Z,26.57
2019-01-03T20:38:38.073Z,24.80
2019-01-03T20:41:10.218Z,26.67
2019-01-03T20:43:42.430Z,26.80
2019-01-03T20:46:14.542Z,25.53
2019-01-03T20:48:46.705Z,30.07
2019-01-03T20:51:18.800Z,28.47
2019-01-03T20:53:50.864Z,27.37
2019-01-03T20:56:22.995Z,28.10
2019-01-03T20:58:54.980Z,26.67
2019-01-03T21:01:27.193Z,27.20
2019-01-03T21:03:59.294Z,27.77
2019-01-03T21:06:31.425Z,29.27
2019-01-03T21:09:44.279Z,29.17
2019-01-03T21:12:16.357Z,35.70
2019-01-03T21:14:48.415Z,38.37
2019-01-03T21:17:20.523Z,30.50
2019-01-03T21:19:52.613Z,26.07
2019-01-03T21:22:24.800Z,29.33
2019-01-03T21:24:56.859Z,26.23
2019-01-03T21:27:28.958Z,25.90
2019-01-03T21:30:01.002Z,26.30
2019-01-03T21:32:33.103Z,23.13
2019-01-03T21:35:05.192Z,22.23
2019-01-03T21:37:37.286Z,22.07
2019-01-03T21:40:10.390Z,20.87
2019-01-03T21:42:42.488Z,26.80
2019-01-03T21:45:14.592Z,28.70
2019-01-03T21:47:46.665Z,24.17
2019-01-03T21:50:18.731Z,22.50
2019-01-03T21:52:50.776Z,26.13
2019-01-03T21:55:22.783Z,27.83
2019-01-03T21:57:54.854Z,27.97
2019-01-03T22:00:27.036Z,25.93
2019-01-03T22:02:59.084Z,27.63
2019-01-03T22:05:31.169Z,26.30
2019-01-03T22:08:03.235Z,26.87
2019-01-03T22:10:35.329Z,26.27
2019-01-03T22:13:07.437Z,27.77
2019-01-03T22:15:39.526Z,26.10
2019-01-03T22:18:11.671Z,26.67
2019-01-03T22:20:43.747Z,26.53
2019-01-03T22:23:15.811Z,25.00
2019-01-03T22:25:47.887Z,25.60
2019-01-03T22:28:19.955Z,25.43
2019-01-03T22:30:52.002Z,25.57
2019-01-03T22:33:24.063Z,25.40
2019-01-03T22:35:56.104Z,26.53
2019-01-03T22:38:28.152Z,27.00
2019-01-03T22:41:00.219Z,26.00
2019-01-03T22:43:32.239Z,25.73
2019-01-03T22:48:42.379Z,26.17
2019-01-03T22:51:19.958Z,24.80
2019-01-03T22:53:48.488Z,23.23
2019-01-03T22:56:20.567Z,22.00
2019-01-03T22:58:52.568Z,24.43
2019-01-03T23:01:24.618Z,27.73
2019-01-03T23:03:56.608Z,24.70
2019-01-03T23:06:28.626Z,26.63
2019-01-03T23:09:00.712Z,26.67
2019-01-03T23:11:32.819Z,24.07
2019-01-03T23:14:04.813Z,23.83
2019-01-03T23:16:36.896Z,23.30
2019-01-03T23:19:08.877Z,21.07
2019-01-03T23:21:40.915Z,23.30
2019-01-03T23:24:12.975Z,27.47
2019-01-03T23:26:45.036Z,23.60
2019-01-03T23:29:17.042Z,23.43
2019-01-03T23:31:49.220Z,24.00
2019-01-03T23:34:21.217Z,23.07
2019-01-03T23:36:53.236Z,23.47
2019-01-03T23:39:44.692Z,24.67
2019-01-03T23:42:16.714Z,24.43
2019-01-03T23:45:27.651Z,24.73
2019-01-03T23:48:00.578Z,22.00
2019-01-03T23:50:33.845Z,27.13
2019-01-03T23:53:05.884Z,25.57
2019-01-03T23:56:19.945Z,25.07
2019-01-03T23:58:51.988Z,25.33
